Time;durP1;ratioP1;P1;durP2;ratioP2;P2;SDS_P1;SDS_P2;PMS_P1;PMS_P2;Temp;Humidity;BMP_temperature;BMP_pressure;BME280_temperature;BME280_humidity;BME280_pressure;Samples;Min_cycle;Max_cycle;Signal;HPM_P1;HPM_P2
2021/01/10 00:00:22;;;;;;;310.48;123.78;;;;;;;-0.64;70.33;97597.02;1807649;77;27503;-88
2021/01/10 00:02:51;;;;;;;305.15;122.15;;;;;;;-0.59;70.37;97597.42;1829354;77;25692;-88
2021/01/10 00:05:35;;;;;;;297.50;115.82;;;;;;;-0.56;70.37;97605.11;1831616;77;25829;-88
2021/01/10 00:08:03;;;;;;;293.33;114.72;;;;;;;-0.61;70.29;97606.03;1842609;77;26274;-87
2021/01/10 00:10:31;;;;;;;284.83;115.82;;;;;;;-0.64;70.40;97611.11;1842591;77;25820;-84
2021/01/10 00:13:03;;;;;;;273.05;113.32;;;;;;;-0.65;70.41;97610.77;1842685;77;27493;-88
2021/01/10 00:15:32;;;;;;;275.07;113.20;;;;;;;-0.74;70.35;97604.96;1842513;77;25757;-86
2021/01/10 00:18:00;;;;;;;277.43;117.03;;;;;;;-0.75;70.49;97605.93;1842525;77;25709;-84
2021/01/10 00:20:28;;;;;;;273.70;112.55;;;;;;;-0.74;70.60;97610.27;1842487;77;25717;-86
2021/01/10 00:22:58;;;;;;;281.20;119.10;;;;;;;-0.72;70.59;97610.94;1842614;77;25869;-88
2021/01/10 00:25:28;;;;;;;275.20;116.45;;;;;;;-0.74;70.58;97615.56;1828923;77;46552;-88
2021/01/10 00:27:55;;;;;;;285.35;117.33;;;;;;;-0.72;70.58;97618.89;1832005;77;25690;-86
2021/01/10 00:30:23;;;;;;;279.23;113.50;;;;;;;-0.77;70.64;97621.13;1833096;77;25897;-87
2021/01/10 00:32:55;;;;;;;278.05;111.72;;;;;;;-0.77;70.66;97618.47;1845028;77;25681;-82
2021/01/10 00:35:24;;;;;;;265.18;112.95;;;;;;;-0.72;70.70;97629.49;1857737;77;25735;-88
2021/01/10 00:37:55;;;;;;;275.27;114.77;;;;;;;-0.74;70.69;97622.19;1857748;77;29005;-87
2021/01/10 00:40:25;;;;;;;286.80;117.15;;;;;;;-0.76;70.72;97622.80;1857681;77;26642;-88
2021/01/10 00:42:53;;;;;;;301.98;125.50;;;;;;;-0.75;70.75;97627.14;1857769;77;25780;-86
2021/01/10 00:45:21;;;;;;;298.23;122.28;;;;;;;-0.76;70.76;97627.62;1857724;77;25562;-86
2021/01/10 00:47:53;;;;;;;303.45;122.60;;;;;;;-0.70;70.84;97628.88;1857749;77;25648;-82
2021/01/10 00:50:19;;;;;;;309.00;125.40;;;;;;;-0.63;70.82;97635.81;1857364;77;27749;-83
2021/01/10 00:52:46;;;;;;;300.80;122.67;;;;;;;-0.62;70.78;97642.31;1857773;77;25731;-88
2021/01/10 00:55:13;;;;;;;285.65;119.67;;;;;;;-0.57;70.84;97641.39;1857818;77;25693;-81
2021/01/10 00:57:41;;;;;;;286.82;122.98;;;;;;;-0.55;70.89;97642.10;1857692;77;25771;-81
2021/01/10 01:00:17;;;;;;;297.27;120.80;;;;;;;-0.51;70.86;97642.19;1857758;77;25836;-87
2021/01/10 01:02:49;;;;;;;297.95;121.05;;;;;;;-0.47;70.89;97640.08;1857832;77;27535;-82
2021/01/10 01:05:17;;;;;;;296.93;122.33;;;;;;;-0.48;70.92;97647.20;1857915;77;25731;-84
2021/01/10 01:07:44;;;;;;;286.70;122.47;;;;;;;-0.54;70.90;97654.39;1857730;77;25683;-88
2021/01/10 01:10:13;;;;;;;299.40;123.10;;;;;;;-0.62;70.88;97652.08;1857665;77;25736;-83
2021/01/10 01:12:40;;;;;;;267.60;115.47;;;;;;;-0.59;71.05;97659.25;1857834;77;25800;-88
2021/01/10 01:15:09;;;;;;;256.02;106.27;;;;;;;-0.53;71.11;97652.58;1857907;77;28558;-85
2021/01/10 01:17:37;;;;;;;254.75;105.75;;;;;;;-0.49;71.09;97654.83;1857777;77;26116;-88
2021/01/10 01:20:06;;;;;;;247.80;105.85;;;;;;;-0.54;70.93;97662.34;1857704;77;25835;-86
2021/01/10 01:22:33;;;;;;;252.62;105.47;;;;;;;-0.58;71.00;97661.41;1857737;77;25852;-85
2021/01/10 01:25:02;;;;;;;236.95;106.30;;;;;;;-0.63;71.09;97656.53;1857873;77;25864;-87
2021/01/10 01:27:33;;;;;;;257.85;108.35;;;;;;;-0.69;71.07;97655.73;1857917;77;28974;-82
2021/01/10 01:30:01;;;;;;;264.00;110.50;;;;;;;-0.76;71.08;97647.50;1857821;77;25590;-88
2021/01/10 01:32:29;;;;;;;262.08;108.45;;;;;;;-0.75;71.28;97648.34;1852977;77;25783;-86
2021/01/10 01:34:56;;;;;;;262.27;112.52;;;;;;;-0.70;71.30;97650.08;1854056;76;25747;-85
2021/01/10 01:37:24;;;;;;;253.55;108.12;;;;;;;-0.65;71.25;97650.53;1851748;77;25797;-88
2021/01/10 01:39:51;;;;;;;257.45;106.65;;;;;;;-0.63;71.25;97647.74;1853896;77;27476;-82
2021/01/10 01:42:18;;;;;;;256.90;110.92;;;;;;;-0.59;71.35;97652.62;1833770;77;25701;-84
2021/01/10 01:44:46;;;;;;;248.22;107.43;;;;;;;-0.54;71.30;97651.73;1832942;77;25791;-88
2021/01/10 01:47:17;;;;;;;240.45;101.80;;;;;;;-0.50;71.24;97660.27;1851657;77;26429;-83
2021/01/10 01:49:47;;;;;;;189.97;80.80;;;;;;;-0.46;71.21;97659.84;1851817;77;25618;-84
2021/01/10 01:52:15;;;;;;;230.05;99.15;;;;;;;-0.44;71.16;97661.87;1851504;77;27487;-86
2021/01/10 01:54:44;;;;;;;219.93;94.42;;;;;;;-0.41;71.12;97660.28;1851596;77;26217;-88
2021/01/10 01:57:12;;;;;;;207.98;92.65;;;;;;;-0.41;71.14;97663.42;1853940;77;25819;-84
2021/01/10 01:59:39;;;;;;;201.27;89.65;;;;;;;-0.40;71.09;97657.14;1851622;77;26440;-86
2021/01/10 02:02:08;;;;;;;208.57;88.87;;;;;;;-0.40;71.15;97654.00;1826766;77;25850;-87
2021/01/10 02:04:49;;;;;;;217.55;92.08;;;;;;;-0.38;71.09;97657.36;1851563;77;28447;-88
2021/01/10 02:07:24;;;;;;;206.38;91.42;;;;;;;-0.45;70.93;97658.87;1848247;77;26200;-88
2021/01/10 02:10:08;;;;;;;209.50;93.50;;;;;;;-0.52;70.97;97657.75;1832639;77;25716;-86
2021/01/10 02:12:40;;;;;;;229.43;96.10;;;;;;;-0.54;71.10;97658.37;1851633;77;25749;-86
2021/01/10 02:15:12;;;;;;;212.80;92.95;;;;;;;-0.57;71.16;97655.14;1851806;77;25899;-82
2021/01/10 02:17:42;;;;;;;206.82;90.95;;;;;;;-0.56;71.29;97663.45;1828174;77;27492;-82
2021/01/10 02:20:30;;;;;;;206.45;89.45;;;;;;;-0.56;71.33;97655.01;1816399;78;25366;-85
2021/01/10 02:23:25;;;;;;;198.85;88.58;;;;;;;-0.55;71.37;97656.69;1801863;77;25789;-83
2021/01/10 02:25:55;;;;;;;210.85;88.90;;;;;;;-0.56;71.34;97656.82;1816344;78;25863;-85
2021/01/10 02:28:24;;;;;;;215.43;93.47;;;;;;;-0.54;71.43;97668.13;1847514;77;25863;-85
2021/01/10 02:30:54;;;;;;;209.95;92.55;;;;;;;-0.55;71.46;97664.64;1851593;77;27485;-87
2021/01/10 02:33:51;;;;;;;212.17;90.40;;;;;;;-0.57;71.37;97668.40;1842527;77;25748;-86
2021/01/10 02:36:27;;;;;;;224.52;97.67;;;;;;;-0.63;71.42;97665.81;1819817;77;25934;-86
2021/01/10 02:39:08;;;;;;;230.52;100.82;;;;;;;-0.63;71.58;97664.98;1821280;77;26648;-87
2021/01/10 02:41:53;;;;;;;232.50;98.55;;;;;;;-0.61;71.64;97671.83;1818468;77;25688;-85
2021/01/10 02:44:29;;;;;;;214.57;94.58;;;;;;;-0.58;71.65;97672.86;1840831;77;28454;-88
2021/01/10 02:46:57;;;;;;;244.55;102.87;;;;;;;-0.59;71.69;97671.66;1833909;77;25697;-86
2021/01/10 02:49:24;;;;;;;237.93;101.27;;;;;;;-0.57;71.68;97675.03;1823070;77;26040;-87
2021/01/10 02:51:52;;;;;;;254.40;103.80;;;;;;;-0.55;71.73;97673.08;1837402;77;25650;-81
2021/01/10 02:54:20;;;;;;;255.03;105.55;;;;;;;-0.53;71.70;97671.14;1817156;77;25806;-81
2021/01/10 02:57:15;;;;;;;344.25;134.47;;;;;;;-0.51;71.75;97670.03;1815437;77;27491;-82
2021/01/10 02:59:43;;;;;;;418.73;168.22;;;;;;;-0.47;71.82;97666.12;1793890;77;25863;-85
2021/01/10 03:02:13;;;;;;;396.77;157.97;;;;;;;-0.47;71.73;97666.12;1811634;77;26172;-85
2021/01/10 03:04:41;;;;;;;387.23;154.40;;;;;;;-0.48;71.76;97669.73;1842661;77;26449;-86
2021/01/10 03:07:09;;;;;;;360.65;142.47;;;;;;;-0.45;71.80;97665.50;1842692;77;25319;-84
2021/01/10 03:09:37;;;;;;;283.47;114.57;;;;;;;-0.46;71.79;97670.45;1832458;77;27519;-87
2021/01/10 03:12:27;;;;;;;256.82;105.83;;;;;;;-0.44;71.83;97665.02;1830044;77;25869;-82
2021/01/10 03:15:00;;;;;;;229.78;97.40;;;;;;;-0.42;71.83;97669.21;1812890;77;25393;-82
2021/01/10 03:17:47;;;;;;;219.10;91.80;;;;;;;-0.39;71.79;97665.45;1832886;77;25720;-85
2021/01/10 03:20:18;;;;;;;231.35;95.60;;;;;;;-0.40;71.80;97660.63;1825546;77;25683;-85
2021/01/10 03:22:46;;;;;;;224.45;94.80;;;;;;;-0.40;71.78;97658.47;1842579;77;27487;-84
2021/01/10 03:25:18;;;;;;;220.97;94.50;;;;;;;-0.45;71.80;97662.84;1828219;77;25812;-84
2021/01/10 03:27:46;;;;;;;216.15;93.42;;;;;;;-0.47;71.87;97658.16;1810372;77;25806;-82
2021/01/10 03:30:17;;;;;;;206.13;89.15;;;;;;;-0.49;71.96;97656.16;1817650;77;25805;-86
2021/01/10 03:32:46;;;;;;;186.43;83.50;;;;;;;-0.51;71.94;97660.75;1846840;77;25807;-84
2021/01/10 03:35:15;;;;;;;185.75;86.08;;;;;;;-0.52;71.97;97655.09;1832497;77;28488;-86
2021/01/10 03:37:44;;;;;;;186.65;84.65;;;;;;;-0.50;72.04;97659.78;1833370;76;26187;-86
2021/01/10 03:40:13;;;;;;;184.72;81.08;;;;;;;-0.50;72.06;97658.45;1854077;77;26340;-86
2021/01/10 03:42:41;;;;;;;180.52;81.78;;;;;;;-0.49;72.05;97661.95;1855100;76;25766;-87
2021/01/10 03:45:12;;;;;;;182.10;83.47;;;;;;;-0.50;72.04;97669.06;1822971;76;25683;-83
2021/01/10 03:47:39;;;;;;;184.87;82.35;;;;;;;-0.52;72.04;97656.42;1838870;77;28486;-83
2021/01/10 03:50:10;;;;;;;188.12;85.55;;;;;;;-0.51;72.10;97662.08;1854943;76;26247;-81
2021/01/10 03:52:38;;;;;;;196.82;82.70;;;;;;;-0.52;72.05;97655.09;1855145;77;25683;-82
2021/01/10 03:55:09;;;;;;;194.35;83.55;;;;;;;-0.49;72.09;97661.95;1831383;76;25703;-81
2021/01/10 03:57:39;;;;;;;181.37;80.72;;;;;;;-0.47;72.16;97663.46;1840272;77;25656;-89
2021/01/10 04:00:11;;;;;;;193.13;81.30;;;;;;;-0.51;72.03;97655.45;1846877;77;27494;-82
2021/01/10 04:02:38;;;;;;;180.97;82.30;;;;;;;-0.52;72.07;97663.05;1833368;77;25321;-84
2021/01/10 04:05:07;;;;;;;185.07;81.30;;;;;;;-0.51;72.15;97666.06;1855007;76;25859;-85
2021/01/10 04:07:35;;;;;;;188.70;83.22;;;;;;;-0.51;72.10;97663.41;1854943;77;26382;-83
2021/01/10 04:10:03;;;;;;;188.32;83.05;;;;;;;-0.53;72.12;97662.70;1855145;77;26255;-86
2021/01/10 04:12:32;;;;;;;188.15;84.20;;;;;;;-0.51;72.14;97652.80;1831396;77;27488;-88
2021/01/10 04:14:59;;;;;;;195.72;83.90;;;;;;;-0.50;72.09;97657.62;1855079;77;26162;-86
2021/01/10 04:17:29;;;;;;;186.88;83.22;;;;;;;-0.54;72.02;97654.39;1831471;77;25722;-88
2021/01/10 04:19:57;;;;;;;193.22;85.03;;;;;;;-0.56;72.04;97653.69;1839215;77;25731;-87
2021/01/10 04:22:24;;;;;;;187.68;81.92;;;;;;;-0.58;72.03;97654.30;1845060;77;25708;-84
2021/01/10 04:24:51;;;;;;;180.10;81.70;;;;;;;-0.59;72.07;97657.92;1821574;77;27553;-86
2021/01/10 04:27:22;;;;;;;182.62;82.40;;;;;;;-0.61;72.02;97661.22;1845229;77;26382;-85
2021/01/10 04:29:49;;;;;;;187.07;83.40;;;;;;;-0.66;72.00;97659.94;1849658;77;25898;-85
2021/01/10 04:32:16;;;;;;;179.25;79.42;;;;;;;-0.67;72.05;97663.56;1851769;77;26539;-88
2021/01/10 04:34:44;;;;;;;169.35;78.17;;;;;;;-0.70;72.02;97667.31;1827919;77;25734;-87
2021/01/10 04:37:11;;;;;;;169.35;75.28;;;;;;;-0.72;72.01;97663.95;1787169;77;28374;-85
2021/01/10 04:39:38;;;;;;;171.30;75.67;;;;;;;-0.77;71.95;97658.23;1830207;77;25813;-85
2021/01/10 04:42:07;;;;;;;179.70;78.62;;;;;;;-0.81;71.91;97663.44;1809501;77;25342;-81
2021/01/10 04:44:34;;;;;;;164.32;74.62;;;;;;;-0.85;71.86;97657.59;1830337;77;25735;-88
2021/01/10 04:47:02;;;;;;;172.13;76.15;;;;;;;-0.91;71.88;97658.11;1787221;77;26184;-84
2021/01/10 04:49:29;;;;;;;158.47;73.55;;;;;;;-0.94;71.92;97653.56;1831278;77;27512;-84
2021/01/10 04:51:58;;;;;;;169.85;74.32;;;;;;;-1.00;71.90;97657.59;1819749;77;25485;-87
2021/01/10 04:54:29;;;;;;;162.05;73.47;;;;;;;-1.02;71.93;97657.38;1842595;77;25736;-81
2021/01/10 04:56:57;;;;;;;143.50;64.60;;;;;;;-1.04;71.93;97651.36;1844455;77;25800;-87
2021/01/10 04:59:28;;;;;;;151.15;69.50;;;;;;;-1.10;71.85;97663.34;1844949;77;26442;-85
2021/01/10 05:01:59;;;;;;;145.87;65.47;;;;;;;-1.14;71.93;97660.11;1809907;77;28476;-83
2021/01/10 05:04:32;;;;;;;143.40;64.37;;;;;;;-1.14;71.95;97665.41;1823043;77;26399;-88
2021/01/10 05:07:00;;;;;;;143.93;68.07;;;;;;;-1.14;71.92;97669.39;1841133;77;26092;-87
2021/01/10 05:09:28;;;;;;;156.85;69.62;;;;;;;-1.15;71.92;97669.03;1821984;77;25764;-87
2021/01/10 05:11:56;;;;;;;139.90;60.70;;;;;;;-1.16;71.83;97673.97;1820094;77;25842;-85
2021/01/10 05:14:23;;;;;;;142.80;62.35;;;;;;;-1.18;71.85;97671.94;1803407;77;27577;-85
2021/01/10 05:16:51;;;;;;;147.37;65.35;;;;;;;-1.23;71.79;97676.81;1842709;77;25702;-85
2021/01/10 05:19:22;;;;;;;145.53;61.73;;;;;;;-1.28;71.80;97679.00;1819246;77;25739;-85
2021/01/10 05:21:49;;;;;;;143.85;62.03;;;;;;;-1.32;71.82;97678.89;1842757;77;26163;-81
2021/01/10 05:24:20;;;;;;;137.43;61.95;;;;;;;-1.36;71.71;97679.30;1842652;77;25763;-88
2021/01/10 05:26:48;;;;;;;118.00;52.85;;;;;;;-1.43;71.72;97680.30;1842766;77;27584;-84
2021/01/10 05:29:15;;;;;;;110.32;51.33;;;;;;;-1.47;71.76;97676.25;1815605;77;26871;-83
2021/01/10 05:31:46;;;;;;;106.55;50.00;;;;;;;-1.50;71.77;97674.70;1823714;77;25824;-85
2021/01/10 05:34:19;;;;;;;107.83;49.48;;;;;;;-1.53;71.75;97679.40;1827317;77;25680;-85
2021/01/10 05:36:47;;;;;;;86.75;41.15;;;;;;;-1.58;71.72;97679.81;1838028;77;25804;-82
2021/01/10 05:39:29;;;;;;;99.03;44.53;;;;;;;-1.59;71.70;97689.20;1818182;77;27598;-87
2021/01/10 05:42:03;;;;;;;97.37;45.08;;;;;;;-1.67;71.63;97681.04;1818213;77;25729;-85
2021/01/10 05:44:40;;;;;;;102.55;47.78;;;;;;;-1.78;71.59;97686.39;1841398;77;26311;-83
2021/01/10 05:47:13;;;;;;;102.42;46.77;;;;;;;-1.85;71.63;97682.95;1831688;77;25874;-85
2021/01/10 05:49:55;;;;;;;105.78;46.35;;;;;;;-1.88;71.58;97689.81;1830554;77;25893;-85
2021/01/10 05:52:23;;;;;;;114.85;52.53;;;;;;;-1.93;71.50;97685.85;1818335;77;27491;-85
2021/01/10 05:54:54;;;;;;;116.62;52.05;;;;;;;-1.97;71.54;97690.58;1846478;77;25312;-82
2021/01/10 05:57:29;;;;;;;127.17;53.28;;;;;;;-1.96;71.58;97693.59;1851576;77;26404;-85
2021/01/10 06:00:00;;;;;;;162.57;65.57;;;;;;;-2.00;71.61;97694.80;1851676;77;25700;-84
2021/01/10 06:02:36;;;;;;;183.12;73.02;;;;;;;-1.99;71.58;97696.47;1818670;77;26261;-82
2021/01/10 06:05:18;;;;;;;181.25;70.78;;;;;;;-2.03;71.54;97700.33;1839980;77;27539;-82
2021/01/10 06:07:48;;;;;;;149.35;62.78;;;;;;;-2.02;71.53;97695.88;1840586;77;26818;-85
2021/01/10 06:10:30;;;;;;;177.35;73.07;;;;;;;-2.06;71.44;97696.64;1829458;77;25654;-86
2021/01/10 06:13:06;;;;;;;203.80;78.92;;;;;;;-2.12;71.37;97699.77;1823059;77;25851;-81
2021/01/10 06:15:35;;;;;;;183.25;74.50;;;;;;;-2.17;71.34;97700.61;1835037;77;25748;-82
2021/01/10 06:18:05;;;;;;;163.43;66.67;;;;;;;-2.23;71.21;97700.64;1822280;77;28539;-82
2021/01/10 06:20:34;;;;;;;154.60;63.73;;;;;;;-2.28;71.24;97700.65;1836343;77;25662;-84
2021/01/10 06:23:04;;;;;;;145.15;63.73;;;;;;;-2.33;71.17;97706.33;1818126;77;26624;-84
2021/01/10 06:25:36;;;;;;;153.72;67.35;;;;;;;-2.39;71.13;97712.09;1818133;77;26384;-85
2021/01/10 06:28:19;;;;;;;111.47;49.73;;;;;;;-2.43;71.11;97716.45;1818455;77;25762;-84
2021/01/10 06:31:00;;;;;;;156.32;67.60;;;;;;;-2.53;71.04;97725.58;1818107;77;27496;-82
2021/01/10 06:33:31;;;;;;;164.50;69.35;;;;;;;-2.63;71.12;97722.83;1815576;77;25995;-84
2021/01/10 06:36:06;;;;;;;166.90;73.63;;;;;;;-2.65;71.17;97728.71;1821658;77;26365;-83
2021/01/10 06:38:36;;;;;;;165.18;71.40;;;;;;;-2.69;71.10;97735.70;1821700;77;26507;-82
2021/01/10 06:41:22;;;;;;;166.73;69.53;;;;;;;-2.76;70.99;97739.29;1821709;77;25718;-85
2021/01/10 06:44:04;;;;;;;120.02;54.85;;;;;;;-2.87;70.93;97746.38;1821690;77;27567;-84
2021/01/10 06:46:33;;;;;;;131.52;60.55;;;;;;;-2.96;71.10;97741.34;1821546;77;26140;-81
2021/01/10 06:49:05;;;;;;;161.68;67.27;;;;;;;-2.93;71.22;97746.39;1821742;77;25697;-82
2021/01/10 06:51:33;;;;;;;;;;;;;;;-2.95;71.17;97749.62;1824409;77;25682;-84
2021/01/10 06:54:05;;;;;;;206.87;75.87;;;;;;;-3.01;71.13;97750.09;1821679;77;25725;-84
2021/01/10 06:56:36;;;;;;;183.40;75.55;;;;;;;-3.05;71.17;97759.23;1840572;77;27495;-82
2021/01/10 06:59:12;;;;;;;202.00;76.50;;;;;;;-3.06;71.16;97764.15;1825398;76;25670;-83
2021/01/10 07:01:51;;;;;;;228.60;90.45;;;;;;;-3.10;71.15;97763.53;1821809;77;25762;-81
2021/01/10 07:04:21;;;;;;;240.20;98.27;;;;;;;-3.14;71.09;97763.91;1836961;77;25807;-83
2021/01/10 07:06:52;;;;;;;197.78;82.78;;;;;;;-3.18;71.07;97761.13;1838270;77;25765;-84
2021/01/10 07:09:22;;;;;;;185.35;77.30;;;;;;;-3.23;71.08;97758.83;1844546;77;27492;-84
2021/01/10 07:11:51;;;;;;;165.47;66.70;;;;;;;-3.23;71.10;97761.95;1831524;77;25761;-85
2021/01/10 07:14:24;;;;;;;164.77;68.35;;;;;;;-3.26;71.08;97763.05;1851622;77;25886;-84
2021/01/10 07:16:57;;;;;;;174.57;73.65;;;;;;;-3.29;71.03;97762.80;1837061;77;25702;-83
2021/01/10 07:19:28;;;;;;;186.67;76.22;;;;;;;-3.38;70.93;97766.63;1834267;77;25872;-82
2021/01/10 07:21:55;;;;;;;212.15;94.35;;;;;;;-3.44;70.98;97767.06;1829261;77;27576;-83
2021/01/10 07:24:29;;;;;;;227.50;105.10;;;;;;;-3.48;70.99;97766.45;1830966;77;26025;-84
2021/01/10 07:27:02;;;;;;;256.32;108.65;;;;;;;-3.50;71.04;97766.23;1855234;77;25749;-84
2021/01/10 07:29:34;;;;;;;;;;;;;;;-3.52;71.07;97765.02;1858055;76;26538;-83
2021/01/10 07:32:09;;;;;;;273.27;102.32;;;;;;;-3.54;71.15;97768.72;1855387;76;27299;-82
2021/01/10 07:34:39;;;;;;;262.70;104.92;;;;;;;-3.61;71.20;97765.68;1845079;76;27453;-83
2021/01/10 07:37:07;;;;;;;262.00;104.95;;;;;;;-3.60;71.31;97763.41;1841824;77;26299;-83
2021/01/10 07:39:36;;;;;;;264.63;101.35;;;;;;;-3.54;71.36;97766.92;1842723;77;25824;-83
2021/01/10 07:42:16;;;;;;;208.20;84.70;;;;;;;-3.50;71.38;97774.14;1818984;77;25865;-83
2021/01/10 07:44:52;;;;;;;172.22;72.92;;;;;;;-3.47;71.37;97772.09;1842764;77;25813;-83
2021/01/10 07:47:35;;;;;;;159.45;65.47;;;;;;;-3.47;71.33;97774.73;1821271;77;28372;-84
2021/01/10 07:50:11;;;;;;;168.60;67.47;;;;;;;-3.51;71.37;97775.94;1827766;77;25665;-85
2021/01/10 07:52:57;;;;;;;153.87;65.32;;;;;;;-3.49;71.49;97780.59;1812942;77;26134;-83
2021/01/10 07:55:30;;;;;;;204.03;81.32;;;;;;;-3.44;71.54;97783.75;1824391;77;25884;-83
2021/01/10 07:58:07;;;;;;;216.42;87.80;;;;;;;-3.40;71.61;97789.64;1804845;77;25323;-83
2021/01/10 08:00:39;;;;;;;199.97;83.00;;;;;;;-3.35;71.59;97788.80;1819772;77;28670;-82
2021/01/10 08:03:11;;;;;;;187.45;79.22;;;;;;;-3.29;71.49;97791.83;1793330;77;25628;-83
2021/01/10 08:05:42;;;;;;;156.63;68.83;;;;;;;-3.24;71.46;97790.63;1788733;78;25756;-83
2021/01/10 08:08:18;;;;;;;185.65;74.30;;;;;;;-3.24;71.39;97794.11;1807456;77;25775;-84
2021/01/10 08:10:53;;;;;;;156.37;67.95;;;;;;;-3.20;71.41;97794.72;1796871;77;25860;-83
2021/01/10 08:13:32;;;;;;;158.68;66.67;;;;;;;-3.13;71.45;97799.89;1826411;77;27471;-83
2021/01/10 08:16:06;;;;;;;144.13;61.95;;;;;;;-3.02;71.47;97796.78;1837821;77;25736;-84
2021/01/10 08:18:43;;;;;;;134.37;62.58;;;;;;;-2.91;71.47;97794.19;1842722;77;25745;-84
2021/01/10 08:21:16;;;;;;;143.60;64.12;;;;;;;-2.80;71.36;97796.00;1834670;77;25768;-83
2021/01/10 08:23:47;;;;;;;143.05;61.35;;;;;;;-2.70;71.31;97800.92;1829328;77;25771;-83
2021/01/10 08:26:18;;;;;;;149.55;65.25;;;;;;;-2.69;71.25;97791.20;1817659;77;27485;-83
2021/01/10 08:28:54;;;;;;;148.25;66.17;;;;;;;-2.67;71.20;97791.44;1842513;77;25779;-83
2021/01/10 08:31:24;;;;;;;141.73;63.78;;;;;;;-2.65;71.21;97793.45;1823804;77;25864;-84
2021/01/10 08:34:09;;;;;;;150.03;69.20;;;;;;;-2.59;71.17;97798.77;1804922;77;26732;-83
2021/01/10 08:36:38;;;;;;;148.78;68.72;;;;;;;-2.66;71.13;97794.45;1795709;79;25687;-83
2021/01/10 08:39:13;;;;;;;141.88;66.42;;;;;;;-2.54;71.32;97793.45;1782773;79;28744;-82
2021/01/10 08:41:47;;;;;;;151.60;68.12;;;;;;;-2.38;71.42;97794.90;1795708;79;25743;-83
2021/01/10 08:44:21;;;;;;;200.43;79.82;;;;;;;-2.21;71.35;97786.48;1795576;79;25766;-83
2021/01/10 08:46:52;;;;;;;141.80;64.60;;;;;;;-2.01;71.33;97791.47;1795476;79;25747;-82
2021/01/10 08:49:23;;;;;;;132.05;60.43;;;;;;;-1.81;71.26;97795.98;1783327;78;25762;-83
2021/01/10 08:51:54;;;;;;;133.63;61.28;;;;;;;-1.64;71.10;97787.99;1795480;79;27655;-82
2021/01/10 08:54:27;;;;;;;;;;;;;;;-1.47;71.03;97795.40;1795023;78;26338;-82
2021/01/10 08:56:58;;;;;;;141.92;61.28;;;;;;;-1.26;70.97;97793.60;1804759;78;25739;-83
2021/01/10 08:59:39;;;;;;;144.60;64.95;;;;;;;-1.05;70.82;97795.41;1798172;78;25830;-83
2021/01/10 09:02:11;;;;;;;139.95;65.05;;;;;;;-0.84;70.59;97796.22;1802027;79;25731;-82
2021/01/10 09:04:43;;;;;;;153.82;67.62;;;;;;;-0.64;70.46;97791.40;1795648;78;26977;-82
2021/01/10 09:07:19;;;;;;;144.15;63.83;;;;;;;-0.46;70.15;97791.12;1795485;79;25707;-81
2021/01/10 09:09:51;;;;;;;219.28;79.50;;;;;;;-0.28;69.85;97795.80;1795423;79;25698;-81
2021/01/10 09:12:42;;;;;;;173.28;74.27;;;;;;;-0.22;69.52;97797.91;1801808;79;25789;-80
2021/01/10 09:15:19;;;;;;;240.10;104.38;;;;;;;-0.23;68.94;97800.20;1777576;79;25806;-81
2021/01/10 09:17:52;;;;;;;165.95;73.80;;;;;;;-0.14;69.34;97794.11;1767020;79;27511;-82
2021/01/10 09:20:22;;;;;;;129.80;58.05;;;;;;;0.05;69.36;97795.47;1768903;79;25731;-82
2021/01/10 09:22:50;;;;;;;133.32;62.50;;;;;;;0.16;68.71;97797.17;1770590;79;25826;-81
2021/01/10 09:25:19;;;;;;;117.20;54.95;;;;;;;0.18;68.73;97794.73;1795501;78;25753;-83
2021/01/10 09:28:19;;;;;;;125.97;58.87;;;;;;;0.36;68.84;97793.06;1795651;79;25878;-81
2021/01/10 09:30:57;;;;;;;105.53;50.70;;;;;;;0.62;68.81;97792.03;1764668;79;28324;-84
2021/01/10 09:33:32;;;;;;;94.45;44.67;;;;;;;0.89;68.57;97786.01;1772912;78;25814;-84
2021/01/10 09:36:03;;;;;;;91.55;44.20;;;;;;;1.11;68.16;97790.16;1821545;77;25687;-84
2021/01/10 09:38:32;;;;;;;92.50;45.55;;;;;;;1.32;67.97;97787.34;1821571;77;25758;-81
2021/01/10 09:41:10;;;;;;;93.22;43.05;;;;;;;1.44;67.72;97787.02;1821515;77;25707;-81
2021/01/10 09:43:45;;;;;;;91.22;45.17;;;;;;;1.64;67.57;97786.45;1845207;77;27491;-81
2021/01/10 09:46:34;;;;;;;106.25;50.03;;;;;;;1.83;67.46;97777.53;1821603;77;26314;-83
2021/01/10 09:49:17;;;;;;;126.80;59.20;;;;;;;2.04;67.12;97781.29;1830817;77;26352;-84
2021/01/10 09:52:02;;;;;;;;;;;;;;;2.25;66.88;97779.19;1834853;77;26620;-83
2021/01/10 09:54:33;;;;;;;79.80;37.70;;;;;;;2.47;66.34;97772.09;1821703;77;25716;-84
2021/01/10 09:57:02;;;;;;;82.42;40.58;;;;;;;2.58;65.54;97772.34;1844163;77;27294;-83
2021/01/10 09:59:46;;;;;;;95.83;43.10;;;;;;;2.40;64.99;97777.69;1821793;77;25522;-84
2021/01/10 10:02:34;;;;;;;92.15;47.60;;;;;;;2.41;65.50;97766.54;1821573;77;25737;-85
2021/01/10 10:05:14;;;;;;;100.90;51.53;;;;;;;2.60;65.53;97773.53;1821679;77;26342;-85
2021/01/10 10:07:48;;;;;;;93.15;48.40;;;;;;;2.78;65.26;97769.85;1821728;77;26435;-85
2021/01/10 10:10:29;;;;;;;96.92;48.98;;;;;;;3.00;65.06;97767.72;1821603;77;27772;-84
2021/01/10 10:13:09;;;;;;;98.22;49.90;;;;;;;3.16;64.44;97767.31;1824698;77;25764;-83
2021/01/10 10:15:45;;;;;;;112.92;51.55;;;;;;;3.14;64.24;97764.49;1826760;77;26270;-84
2021/01/10 10:18:28;;;;;;;106.17;52.73;;;;;;;3.34;64.54;97757.95;1855194;76;26346;-83
2021/01/10 10:20:56;;;;;;;107.95;52.65;;;;;;;3.35;64.05;97760.12;1855305;77;26316;-85
2021/01/10 10:23:24;;;;;;;97.70;50.45;;;;;;;3.54;64.38;97754.55;1855090;77;27471;-83
2021/01/10 10:25:52;;;;;;;93.07;48.23;;;;;;;3.78;64.08;97753.33;1855006;76;26604;-84
2021/01/10 10:28:20;;;;;;;97.22;49.15;;;;;;;3.69;63.15;97750.79;1855290;76;25780;-86
2021/01/10 10:30:48;;;;;;;94.45;51.50;;;;;;;3.81;63.55;97750.34;1831667;77;26648;-83
2021/01/10 10:33:16;;;;;;;89.97;48.15;;;;;;;4.08;63.67;97744.44;1843978;77;25752;-84
2021/01/10 10:35:44;;;;;;;94.60;47.05;;;;;;;4.25;62.60;97739.45;1832309;77;27692;-84
2021/01/10 10:38:12;;;;;;;89.35;46.50;;;;;;;4.24;62.40;97741.29;1819212;77;25847;-85
2021/01/10 10:40:40;;;;;;;80.40;43.92;;;;;;;4.41;62.60;97734.15;1842769;77;25688;-85
2021/01/10 10:43:07;;;;;;;82.53;43.13;;;;;;;4.62;61.94;97738.52;1842601;77;25705;-86
2021/01/10 10:45:35;;;;;;;73.72;39.73;;;;;;;4.73;61.87;97740.02;1837357;77;25692;-85
2021/01/10 10:48:03;;;;;;;81.55;39.95;;;;;;;4.90;61.62;97734.18;1837183;77;27478;-85
2021/01/10 10:50:31;;;;;;;69.77;37.35;;;;;;;5.20;61.69;97730.80;1809440;77;25716;-86
2021/01/10 10:52:59;;;;;;;68.15;39.15;;;;;;;5.40;61.08;97722.74;1833897;77;25786;-86
2021/01/10 10:55:28;;;;;;;75.12;39.80;;;;;;;5.58;60.92;97721.17;1831332;77;25775;-86
2021/01/10 10:57:56;;;;;;;70.20;37.03;;;;;;;5.88;60.78;97718.73;1831851;77;25748;-84
2021/01/10 11:00:24;;;;;;;64.35;35.30;;;;;;;6.24;60.40;97713.72;1827068;77;28451;-85
2021/01/10 11:02:51;;;;;;;61.65;35.40;;;;;;;6.53;59.95;97707.64;1820561;77;25735;-85
2021/01/10 11:05:22;;;;;;;61.80;34.35;;;;;;;6.65;59.09;97707.56;1842630;77;25719;-86
2021/01/10 11:07:49;;;;;;;63.25;32.88;;;;;;;6.67;58.77;97704.20;1829846;77;25843;-86
2021/01/10 11:10:17;;;;;;;57.48;32.08;;;;;;;6.47;58.12;97701.17;1808080;77;25769;-85
2021/01/10 11:12:44;;;;;;;56.50;32.98;;;;;;;6.21;57.85;97695.30;1825034;77;27482;-85
2021/01/10 11:15:13;;;;;;;52.30;30.00;;;;;;;6.08;57.90;97696.71;1834236;77;25782;-86
2021/01/10 11:17:42;;;;;;;49.80;28.52;;;;;;;5.93;57.37;97698.45;1817014;77;25704;-85
2021/01/10 11:20:10;;;;;;;55.40;27.93;;;;;;;5.73;57.48;97686.48;1820147;77;25859;-86
2021/01/10 11:22:38;;;;;;;55.33;29.45;;;;;;;5.66;57.18;97690.87;1837425;77;25800;-86
2021/01/10 11:25:06;;;;;;;49.05;28.42;;;;;;;5.53;57.05;97694.09;1831270;77;28599;-87
2021/01/10 11:27:34;;;;;;;51.25;29.20;;;;;;;5.44;56.86;97695.10;1794476;77;25730;-86
2021/01/10 11:30:05;;;;;;;53.28;29.02;;;;;;;5.37;57.28;97694.14;1841243;77;25820;-86
2021/01/10 11:32:34;;;;;;;53.52;30.00;;;;;;;5.50;57.19;97697.61;1836692;77;25824;-86